Paris/Charles de Gaulle Airport

Airport
ICAO code: 
LFPG
IATA Code: 
CDG
Summary
ICAO Region: 
EUR
Territory: 
Location: 
Roissy-en-France, Ile-de-France
Serving: 
Paris
Elevation: 
392 ft
Coordinates: 
Aerial View: 
49° 0' 31.488" N, 2° 32' 36.83" E
Airport LOS: 
Parallel Runway Operation
Metar
Observation
LFPG 060030Z 32008KT 9999 BKN013 BKN023 05/04 Q1011 NOSIG
Station
Paris-Aeroport Charles De Gaulle
Date/Time
2021-12-06 00:30:00
Wind direction
320°
Wind speed
08 kts
Lowest cloud amount
broken clouds
Temperature
5°C
Dew point
4°C
Humidity
93%
QNH
1011 hPa
Weather condition
n/a

Description

International airport serving Paris.

Climatology

Temperate Marine climate/Oceanic climate (Köppen climate classification Cfb). Moderately cool summer and comparatively warm winter. Prevailing south-westerly winds from the Atlantic Ocean.

Runways

Designator Length Width Surface Rops
08R/26L 2700 60 CON Yes/Yes
09L/27R 2700 60 ASP Yes/Yes
09R/27L 4200 45 ASP Yes/Yes
08L/26R 4215 45 ASP Yes/Yes

SKYbrary Partners:

Safety knowledge contributed by: